gordon.dewis.ca - Random musings from Gordon

Subscribe

Monday morning weather

February 28, 2011 @ 08:23 By: gordon Category: Weather

The Franktown weather radar is quite colourful this morning. This “colour” has led to the cancellation of school buses and snow covered roads, so far, and the prospect of freezing rain and pellets later today, according to the aviation forecast: XFT radar - 20110228 0740

TAF CYOW 281155Z 2812/0112 06012KT 5SM -FZRA -PL BR OVC030 TEMPO
2812/2815 2SM -SNPL OVC020
FM281500 08012KT 1/2SM SN VV004 TEMPO 2815/2821 2SM -SN OVC020
PROB40 2815/2816 3SM -FZRA BR
FM282100 33012G22KT P6SM BKN020
FM282300 31015G25KT P6SM BKN040
FM010300 31015G25KT P6SM SCT040
FM010900 31010KT P6SM SKC
RMK NXT FCST BY 281500Z=

Fun stuff, eh?

Have a safe commute to work this morning!

IMG_3890 The view from my window this morning.

2 Responses to “Monday morning weather”


  1. Paul Tomblin says:

    It’s 43F here. (+6C).

    • gordon says:

      The view out my office window right now is quite impressive. It’s snowing heavily and the vis has dropped to about 500m, which is similar to what they’re seeing out at the airport:

      SPECI CYOW 281533Z 03006KT 1/2SM SN OVC009 M02/ RMK SN4NS4=
      METAR CYND 281500Z CCA 04003KT 1/2SM SN VV005 M02/M02 A2952 RMK SN8
      /S05/ SLP999=


Trackbacks/Pingbacks

  1. gordon.dewis.ca | In like a lion. Out like a lamb? Any predictions? (March 01, 2011 @ 08:14)

Leave a Reply

*